sensor_id;sensor_type;location;lat;lon;timestamp;pressure;altitude;pressure_sealevel;temperature;humidity
50310;BME280;36207;51.850;21.698;2023-08-01T00:00:05;99147.20;;;16.89;61.47
50310;BME280;36207;51.850;21.698;2023-08-01T00:02:31;99148.83;;;16.89;61.54
50310;BME280;36207;51.850;21.698;2023-08-01T00:04:57;99147.91;;;16.90;61.76
50310;BME280;36207;51.850;21.698;2023-08-01T00:07:23;99146.77;;;16.89;61.61
50310;BME280;36207;51.850;21.698;2023-08-01T00:09:50;99148.64;;;16.86;61.67
50310;BME280;36207;51.850;21.698;2023-08-01T00:12:15;99148.73;;;16.82;61.75
50310;BME280;36207;51.850;21.698;2023-08-01T00:14:41;99145.71;;;16.79;61.80
50310;BME280;36207;51.850;21.698;2023-08-01T00:17:07;99148.14;;;16.80;61.80
50310;BME280;36207;51.850;21.698;2023-08-01T00:19:33;99147.48;;;16.82;61.92
50310;BME280;36207;51.850;21.698;2023-08-01T00:21:59;99148.00;;;16.86;61.99
50310;BME280;36207;51.850;21.698;2023-08-01T00:24:25;99149.09;;;16.89;62.29
50310;BME280;36207;51.850;21.698;2023-08-01T00:26:50;99147.16;;;16.92;62.16
50310;BME280;36207;51.850;21.698;2023-08-01T00:29:20;99146.95;;;16.96;62.13
50310;BME280;36207;51.850;21.698;2023-08-01T00:31:46;99146.33;;;16.98;62.18
50310;BME280;36207;51.850;21.698;2023-08-01T00:34:12;99141.25;;;17.01;62.17
50310;BME280;36207;51.850;21.698;2023-08-01T00:36:38;99137.17;;;17.05;62.30
50310;BME280;36207;51.850;21.698;2023-08-01T00:39:04;99136.34;;;17.09;62.16
50310;BME280;36207;51.850;21.698;2023-08-01T00:41:30;99136.96;;;17.17;62.31
50310;BME280;36207;51.850;21.698;2023-08-01T00:43:55;99134.92;;;17.24;62.41
50310;BME280;36207;51.850;21.698;2023-08-01T00:46:21;99134.41;;;17.29;62.68
50310;BME280;36207;51.850;21.698;2023-08-01T00:48:47;99137.17;;;17.30;62.70
50310;BME280;36207;51.850;21.698;2023-08-01T00:51:14;99135.06;;;17.29;62.88
50310;BME280;36207;51.850;21.698;2023-08-01T00:53:41;99131.48;;;17.28;62.97
50310;BME280;36207;51.850;21.698;2023-08-01T00:56:07;99129.34;;;17.27;63.03
50310;BME280;36207;51.850;21.698;2023-08-01T00:58:33;99125.62;;;17.26;63.03
50310;BME280;36207;51.850;21.698;2023-08-01T01:00:59;99123.19;;;17.26;63.08
50310;BME280;36207;51.850;21.698;2023-08-01T01:03:25;99117.55;;;17.24;63.15
50310;BME280;36207;51.850;21.698;2023-08-01T01:06:13;99116.68;;;17.24;63.14
50310;BME280;36207;51.850;21.698;2023-08-01T01:08:43;99118.09;;;17.24;63.20
50310;BME280;36207;51.850;21.698;2023-08-01T01:11:09;99115.09;;;17.26;63.19
50310;BME280;36207;51.850;21.698;2023-08-01T01:13:35;99112.91;;;17.28;62.88
50310;BME280;36207;51.850;21.698;2023-08-01T01:16:01;99111.05;;;17.33;62.88
50310;BME280;36207;51.850;21.698;2023-08-01T01:18:27;99107.23;;;17.38;62.89
50310;BME280;36207;51.850;21.698;2023-08-01T01:20:53;99104.38;;;17.43;62.98
50310;BME280;36207;51.850;21.698;2023-08-01T01:23:19;99097.14;;;17.48;62.74
50310;BME280;36207;51.850;21.698;2023-08-01T01:25:46;99092.65;;;17.54;62.85
50310;BME280;36207;51.850;21.698;2023-08-01T01:28:13;99088.45;;;17.57;62.70
50310;BME280;36207;51.850;21.698;2023-08-01T01:30:41;99085.17;;;17.60;62.64
50310;BME280;36207;51.850;21.698;2023-08-01T01:33:08;99083.05;;;17.62;62.51
50310;BME280;36207;51.850;21.698;2023-08-01T01:35:35;99078.49;;;17.64;62.67
50310;BME280;36207;51.850;21.698;2023-08-01T01:38:02;99076.73;;;17.66;62.75
50310;BME280;36207;51.850;21.698;2023-08-01T01:40:32;99076.35;;;17.69;62.72
50310;BME280;36207;51.850;21.698;2023-08-01T01:43:01;99072.38;;;17.71;62.64
50310;BME280;36207;51.850;21.698;2023-08-01T01:45:28;99069.40;;;17.71;63.09
50310;BME280;36207;51.850;21.698;2023-08-01T01:47:54;99067.80;;;17.67;63.06
50310;BME280;36207;51.850;21.698;2023-08-01T01:50:20;99063.56;;;17.66;63.12
50310;BME280;36207;51.850;21.698;2023-08-01T01:52:46;99056.73;;;17.63;62.70
50310;BME280;36207;51.850;21.698;2023-08-01T01:55:12;99056.36;;;17.60;63.01
50310;BME280;36207;51.850;21.698;2023-08-01T01:57:38;99052.08;;;17.56;63.18
50310;BME280;36207;51.850;21.698;2023-08-01T02:00:04;99052.88;;;17.52;63.25
50310;BME280;36207;51.850;21.698;2023-08-01T02:02:30;99049.41;;;17.47;63.28
50310;BME280;36207;51.850;21.698;2023-08-01T02:04:56;99047.15;;;17.43;63.43
50310;BME280;36207;51.850;21.698;2023-08-01T02:07:22;99045.39;;;17.41;63.06
50310;BME280;36207;51.850;21.698;2023-08-01T02:09:48;99045.02;;;17.41;63.29
50310;BME280;36207;51.850;21.698;2023-08-01T02:12:13;99042.89;;;17.42;63.26
50310;BME280;36207;51.850;21.698;2023-08-01T02:14:41;99044.13;;;17.47;63.23
50310;BME280;36207;51.850;21.698;2023-08-01T02:17:07;99038.85;;;17.51;63.21
50310;BME280;36207;51.850;21.698;2023-08-01T02:19:33;99040.09;;;17.56;63.16
50310;BME280;36207;51.850;21.698;2023-08-01T02:21:59;99035.49;;;17.59;63.29
50310;BME280;36207;51.850;21.698;2023-08-01T02:24:25;99033.71;;;17.58;63.02
50310;BME280;36207;51.850;21.698;2023-08-01T02:26:51;99030.27;;;17.59;63.23
50310;BME280;36207;51.850;21.698;2023-08-01T02:29:17;99030.75;;;17.58;63.33
50310;BME280;36207;51.850;21.698;2023-08-01T02:31:43;99032.38;;;17.56;63.21
50310;BME280;36207;51.850;21.698;2023-08-01T02:34:08;99024.09;;;17.54;63.36
50310;BME280;36207;51.850;21.698;2023-08-01T02:36:34;99025.75;;;17.53;63.57
50310;BME280;36207;51.850;21.698;2023-08-01T02:39:00;99021.85;;;17.52;63.18
50310;BME280;36207;51.850;21.698;2023-08-01T02:41:26;99018.55;;;17.51;63.50
50310;BME280;36207;51.850;21.698;2023-08-01T02:43:52;99017.99;;;17.47;63.34
50310;BME280;36207;51.850;21.698;2023-08-01T02:46:18;99014.70;;;17.42;63.23
50310;BME280;36207;51.850;21.698;2023-08-01T02:48:43;99007.73;;;17.42;63.32
50310;BME280;36207;51.850;21.698;2023-08-01T02:51:09;99005.11;;;17.40;63.38
50310;BME280;36207;51.850;21.698;2023-08-01T02:53:36;99004.20;;;17.37;63.58
50310;BME280;36207;51.850;21.698;2023-08-01T02:56:02;99000.05;;;17.36;63.72
50310;BME280;36207;51.850;21.698;2023-08-01T02:58:30;98997.19;;;17.36;63.46
50310;BME280;36207;51.850;21.698;2023-08-01T03:00:56;98993.71;;;17.36;63.65
50310;BME280;36207;51.850;21.698;2023-08-01T03:03:22;98986.41;;;17.34;63.49
50310;BME280;36207;51.850;21.698;2023-08-01T03:05:47;98982.13;;;17.33;63.57
50310;BME280;36207;51.850;21.698;2023-08-01T03:08:13;98975.00;;;17.32;63.59
50310;BME280;36207;51.850;21.698;2023-08-01T03:10:39;98970.13;;;17.31;63.65
50310;BME280;36207;51.850;21.698;2023-08-01T03:13:05;98969.73;;;17.30;63.82
50310;BME280;36207;51.850;21.698;2023-08-01T03:15:31;98965.45;;;17.29;63.64
50310;BME280;36207;51.850;21.698;2023-08-01T03:17:57;98961.77;;;17.29;64.02
50310;BME280;36207;51.850;21.698;2023-08-01T03:20:23;98963.33;;;17.27;64.35
50310;BME280;36207;51.850;21.698;2023-08-01T03:22:49;98957.91;;;17.26;64.16
50310;BME280;36207;51.850;21.698;2023-08-01T03:25:15;98953.88;;;17.28;63.98
50310;BME280;36207;51.850;21.698;2023-08-01T03:27:41;98952.18;;;17.29;64.18
50310;BME280;36207;51.850;21.698;2023-08-01T03:30:07;98949.64;;;17.29;64.28
50310;BME280;36207;51.850;21.698;2023-08-01T03:32:35;98949.33;;;17.29;64.25
50310;BME280;36207;51.850;21.698;2023-08-01T03:35:04;98950.13;;;17.32;64.13
50310;BME280;36207;51.850;21.698;2023-08-01T03:37:30;98948.30;;;17.37;64.45
50310;BME280;36207;51.850;21.698;2023-08-01T03:39:56;98944.59;;;17.42;64.61
50310;BME280;36207;51.850;21.698;2023-08-01T03:42:22;98944.39;;;17.47;64.55
50310;BME280;36207;51.850;21.698;2023-08-01T03:44:48;98946.27;;;17.51;64.24
50310;BME280;36207;51.850;21.698;2023-08-01T03:47:14;98943.89;;;17.56;64.70
50310;BME280;36207;51.850;21.698;2023-08-01T03:49:40;98939.36;;;17.57;64.92
50310;BME280;36207;51.850;21.698;2023-08-01T03:52:06;98937.21;;;17.57;64.83
50310;BME280;36207;51.850;21.698;2023-08-01T03:54:32;98935.16;;;17.57;65.11
50310;BME280;36207;51.850;21.698;2023-08-01T03:56:58;98934.38;;;17.59;64.69
50310;BME280;36207;51.850;21.698;2023-08-01T03:59:25;98939.86;;;17.61;65.14
50310;BME280;36207;51.850;21.698;2023-08-01T04:01:52;98936.89;;;17.61;65.60
50310;BME280;36207;51.850;21.698;2023-08-01T04:04:17;98938.06;;;17.60;65.07
50310;BME280;36207;51.850;21.698;2023-08-01T04:06:43;98938.94;;;17.61;65.33
50310;BME280;36207;51.850;21.698;2023-08-01T04:09:09;98938.55;;;17.64;65.37
50310;BME280;36207;51.850;21.698;2023-08-01T04:11:35;98942.90;;;17.67;65.69
50310;BME280;36207;51.850;21.698;2023-08-01T04:14:01;98947.35;;;17.69;65.91
50310;BME280;36207;51.850;21.698;2023-08-01T04:16:27;98936.98;;;17.69;65.72
50310;BME280;36207;51.850;21.698;2023-08-01T04:18:53;98934.84;;;17.70;65.26
50310;BME280;36207;51.850;21.698;2023-08-01T04:21:19;98930.85;;;17.71;65.72
50310;BME280;36207;51.850;21.698;2023-08-01T04:23:45;98929.39;;;17.70;65.84
50310;BME280;36207;51.850;21.698;2023-08-01T04:26:11;98931.35;;;17.72;65.75
50310;BME280;36207;51.850;21.698;2023-08-01T04:28:36;98930.08;;;17.74;66.41
50310;BME280;36207;51.850;21.698;2023-08-01T04:31:02;98931.09;;;17.74;65.95
50310;BME280;36207;51.850;21.698;2023-08-01T04:33:28;98932.97;;;17.76;66.05
50310;BME280;36207;51.850;21.698;2023-08-01T04:35:54;98935.98;;;17.76;66.46
50310;BME280;36207;51.850;21.698;2023-08-01T04:38:20;98938.09;;;17.76;66.26
50310;BME280;36207;51.850;21.698;2023-08-01T04:40:46;98932.54;;;17.77;66.12
50310;BME280;36207;51.850;21.698;2023-08-01T04:43:14;98932.37;;;17.79;66.08
50310;BME280;36207;51.850;21.698;2023-08-01T04:45:40;98934.64;;;17.82;65.84
50310;BME280;36207;51.850;21.698;2023-08-01T04:48:05;98935.16;;;17.87;66.22
50310;BME280;36207;51.850;21.698;2023-08-01T04:50:31;98930.68;;;17.91;66.18
50310;BME280;36207;51.850;21.698;2023-08-01T04:52:57;98927.80;;;17.95;66.37
50310;BME280;36207;51.850;21.698;2023-08-01T04:55:23;98926.41;;;17.95;66.48
50310;BME280;36207;51.850;21.698;2023-08-01T04:57:49;98925.30;;;17.99;66.16
50310;BME280;36207;51.850;21.698;2023-08-01T05:00:14;98922.34;;;18.05;66.11
50310;BME280;36207;51.850;21.698;2023-08-01T05:02:41;98924.09;;;18.12;66.15
50310;BME280;36207;51.850;21.698;2023-08-01T05:05:07;98926.19;;;18.17;66.00
50310;BME280;36207;51.850;21.698;2023-08-01T05:07:33;98925.69;;;18.21;66.37
50310;BME280;36207;51.850;21.698;2023-08-01T05:09:58;98925.83;;;18.24;65.81
50310;BME280;36207;51.850;21.698;2023-08-01T05:12:24;98922.89;;;18.27;65.96
50310;BME280;36207;51.850;21.698;2023-08-01T05:14:50;98918.39;;;18.32;65.93
50310;BME280;36207;51.850;21.698;2023-08-01T05:17:16;98913.91;;;18.38;65.68
50310;BME280;36207;51.850;21.698;2023-08-01T05:19:42;98913.39;;;18.47;65.63
50310;BME280;36207;51.850;21.698;2023-08-01T05:22:07;98906.98;;;18.58;65.63
50310;BME280;36207;51.850;21.698;2023-08-01T05:24:33;98904.89;;;18.71;65.36
50310;BME280;36207;51.850;21.698;2023-08-01T05:26:59;98900.65;;;18.83;64.97
50310;BME280;36207;51.850;21.698;2023-08-01T05:29:25;98900.66;;;18.92;64.87
50310;BME280;36207;51.850;21.698;2023-08-01T05:31:51;98900.89;;;19.01;64.76
50310;BME280;36207;51.850;21.698;2023-08-01T05:34:17;98898.15;;;19.08;64.52
50310;BME280;36207;51.850;21.698;2023-08-01T05:36:42;98900.20;;;19.14;64.20
50310;BME280;36207;51.850;21.698;2023-08-01T05:39:08;98896.98;;;19.20;64.13
50310;BME280;36207;51.850;21.698;2023-08-01T05:41:35;98892.09;;;19.26;64.06
50310;BME280;36207;51.850;21.698;2023-08-01T05:44:02;98891.48;;;19.31;63.90
50310;BME280;36207;51.850;21.698;2023-08-01T05:46:28;98888.89;;;19.37;63.66
50310;BME280;36207;51.850;21.698;2023-08-01T05:48:54;98884.70;;;19.42;63.58
50310;BME280;36207;51.850;21.698;2023-08-01T05:51:20;98883.52;;;19.51;63.47
50310;BME280;36207;51.850;21.698;2023-08-01T05:53:46;98877.71;;;19.60;63.40
50310;BME280;36207;51.850;21.698;2023-08-01T05:56:12;98875.88;;;19.70;62.66
50310;BME280;36207;51.850;21.698;2023-08-01T05:58:38;98877.69;;;19.80;63.10
50310;BME280;36207;51.850;21.698;2023-08-01T06:01:03;98873.98;;;19.93;63.13
50310;BME280;36207;51.850;21.698;2023-08-01T06:03:29;98871.13;;;20.07;62.93
50310;BME280;36207;51.850;21.698;2023-08-01T06:05:55;98861.16;;;20.24;62.40
50310;BME280;36207;51.850;21.698;2023-08-01T06:08:21;98858.04;;;20.39;62.80
50310;BME280;36207;51.850;21.698;2023-08-01T06:10:47;98861.02;;;20.55;62.26
50310;BME280;36207;51.850;21.698;2023-08-01T06:13:13;98860.80;;;20.68;61.92
50310;BME280;36207;51.850;21.698;2023-08-01T06:15:39;98858.50;;;20.78;61.28
50310;BME280;36207;51.850;21.698;2023-08-01T06:18:05;98862.83;;;20.88;61.01
50310;BME280;36207;51.850;21.698;2023-08-01T06:20:30;98858.74;;;20.94;60.66
50310;BME280;36207;51.850;21.698;2023-08-01T06:22:57;98857.09;;;21.02;59.85
50310;BME280;36207;51.850;21.698;2023-08-01T06:25:23;98853.98;;;21.10;59.43
50310;BME280;36207;51.850;21.698;2023-08-01T06:27:49;98853.36;;;21.17;59.62
50310;BME280;36207;51.850;21.698;2023-08-01T06:30:15;98845.88;;;21.29;60.04
50310;BME280;36207;51.850;21.698;2023-08-01T06:32:41;98848.55;;;21.41;60.62
50310;BME280;36207;51.850;21.698;2023-08-01T06:35:07;98846.17;;;21.53;59.43
50310;BME280;36207;51.850;21.698;2023-08-01T06:37:33;98846.02;;;21.60;58.39
50310;BME280;36207;51.850;21.698;2023-08-01T06:40:01;98853.23;;;21.65;57.56
50310;BME280;36207;51.850;21.698;2023-08-01T06:42:27;98853.48;;;21.69;57.28
50310;BME280;36207;51.850;21.698;2023-08-01T06:44:53;98852.76;;;21.69;56.52
50310;BME280;36207;51.850;21.698;2023-08-01T06:47:19;98850.91;;;21.73;56.86
50310;BME280;36207;51.850;21.698;2023-08-01T06:49:45;98842.33;;;21.78;57.11
50310;BME280;36207;51.850;21.698;2023-08-01T06:52:10;98842.66;;;21.87;57.53
50310;BME280;36207;51.850;21.698;2023-08-01T06:54:36;98846.73;;;21.97;56.55
50310;BME280;36207;51.850;21.698;2023-08-01T06:57:02;98838.27;;;22.00;55.79
50310;BME280;36207;51.850;21.698;2023-08-01T06:59:29;98838.27;;;22.02;55.54
50310;BME280;36207;51.850;21.698;2023-08-01T07:01:55;98837.48;;;22.03;55.92
50310;BME280;36207;51.850;21.698;2023-08-01T07:04:21;98836.51;;;22.05;55.81
50310;BME280;36207;51.850;21.698;2023-08-01T07:06:47;98833.41;;;22.06;55.19
50310;BME280;36207;51.850;21.698;2023-08-01T07:09:13;98824.52;;;22.07;55.13
50310;BME280;36207;51.850;21.698;2023-08-01T07:11:39;98825.84;;;22.13;55.21
50310;BME280;36207;51.850;21.698;2023-08-01T07:14:05;98828.42;;;22.20;55.40
50310;BME280;36207;51.850;21.698;2023-08-01T07:16:31;98821.17;;;22.28;54.24
50310;BME280;36207;51.850;21.698;2023-08-01T07:18:59;98820.31;;;22.34;54.26
50310;BME280;36207;51.850;21.698;2023-08-01T07:21:25;98815.14;;;22.40;53.60
50310;BME280;36207;51.850;21.698;2023-08-01T07:23:51;98817.14;;;22.47;53.54
50310;BME280;36207;51.850;21.698;2023-08-01T07:26:17;98815.39;;;22.53;53.66
50310;BME280;36207;51.850;21.698;2023-08-01T07:28:43;98810.80;;;22.58;53.31
50310;BME280;36207;51.850;21.698;2023-08-01T07:31:09;98806.08;;;22.61;53.35
50310;BME280;36207;51.850;21.698;2023-08-01T07:33:35;98800.91;;;22.66;53.39
50310;BME280;36207;51.850;21.698;2023-08-01T07:36:02;98801.89;;;22.70;52.75
50310;BME280;36207;51.850;21.698;2023-08-01T07:38:29;98802.45;;;22.75;52.42
50310;BME280;36207;51.850;21.698;2023-08-01T07:40:57;98796.02;;;22.80;52.47
50310;BME280;36207;51.850;21.698;2023-08-01T07:43:23;98795.11;;;22.88;53.03
50310;BME280;36207;51.850;21.698;2023-08-01T07:45:49;98796.92;;;22.98;52.93
50310;BME280;36207;51.850;21.698;2023-08-01T07:48:16;98794.09;;;23.09;51.60
50310;BME280;36207;51.850;21.698;2023-08-01T07:50:42;98787.36;;;23.24;52.94
50310;BME280;36207;51.850;21.698;2023-08-01T07:53:08;98786.88;;;23.40;52.16
50310;BME280;36207;51.850;21.698;2023-08-01T07:55:34;98788.50;;;23.56;52.23
50310;BME280;36207;51.850;21.698;2023-08-01T07:58:01;98783.13;;;23.70;52.55
50310;BME280;36207;51.850;21.698;2023-08-01T08:00:26;98777.98;;;23.87;52.40
50310;BME280;36207;51.850;21.698;2023-08-01T08:02:53;98775.14;;;24.04;51.87
50310;BME280;36207;51.850;21.698;2023-08-01T08:05:19;98777.60;;;24.11;50.79
50310;BME280;36207;51.850;21.698;2023-08-01T08:07:45;98781.76;;;24.10;50.55
50310;BME280;36207;51.850;21.698;2023-08-01T08:10:11;98768.27;;;24.11;51.91
50310;BME280;36207;51.850;21.698;2023-08-01T08:12:37;98769.21;;;24.17;51.66
50310;BME280;36207;51.850;21.698;2023-08-01T08:15:03;98763.39;;;24.20;51.36
50310;BME280;36207;51.850;21.698;2023-08-01T08:17:29;98760.25;;;24.24;51.71
50310;BME280;36207;51.850;21.698;2023-08-01T08:19:55;98755.39;;;24.30;51.48
50310;BME280;36207;51.850;21.698;2023-08-01T08:22:21;98755.17;;;24.40;51.59
50310;BME280;36207;51.850;21.698;2023-08-01T08:24:47;98750.91;;;24.47;50.64
50310;BME280;36207;51.850;21.698;2023-08-01T08:27:13;98740.55;;;24.50;50.54
50310;BME280;36207;51.850;21.698;2023-08-01T08:29:39;98744.01;;;24.51;50.68
50310;BME280;36207;51.850;21.698;2023-08-01T08:32:06;98746.97;;;24.54;50.73
50310;BME280;36207;51.850;21.698;2023-08-01T08:34:32;98751.37;;;24.61;50.56
50310;BME280;36207;51.850;21.698;2023-08-01T08:36:58;98747.58;;;24.65;50.63
50310;BME280;36207;51.850;21.698;2023-08-01T08:39:24;98745.45;;;24.70;51.33
50310;BME280;36207;51.850;21.698;2023-08-01T08:41:52;98751.96;;;24.72;50.58
50310;BME280;36207;51.850;21.698;2023-08-01T08:44:19;98754.33;;;24.68;50.51
50310;BME280;36207;51.850;21.698;2023-08-01T08:46:52;98756.53;;;24.65;50.72
50310;BME280;36207;51.850;21.698;2023-08-01T08:49:19;98753.73;;;24.62;50.67
50310;BME280;36207;51.850;21.698;2023-08-01T08:51:48;98756.73;;;24.60;50.57
50310;BME280;36207;51.850;21.698;2023-08-01T08:54:16;98744.13;;;24.57;50.67
50310;BME280;36207;51.850;21.698;2023-08-01T08:56:43;98740.30;;;24.51;50.96
50310;BME280;36207;51.850;21.698;2023-08-01T08:59:09;98735.52;;;24.47;51.00
50310;BME280;36207;51.850;21.698;2023-08-01T09:01:39;98736.29;;;24.43;50.81
50310;BME280;36207;51.850;21.698;2023-08-01T09:04:06;98730.60;;;24.37;50.91
50310;BME280;36207;51.850;21.698;2023-08-01T09:06:40;98724.23;;;24.34;51.19
50310;BME280;36207;51.850;21.698;2023-08-01T09:09:13;98723.13;;;24.31;51.08
50310;BME280;36207;51.850;21.698;2023-08-01T09:14:11;98723.45;;;24.23;50.72
50310;BME280;36207;51.850;21.698;2023-08-01T09:16:39;98713.88;;;24.18;50.87
50310;BME280;36207;51.850;21.698;2023-08-01T09:19:05;98716.11;;;24.15;51.23
50310;BME280;36207;51.850;21.698;2023-08-01T09:21:33;98712.34;;;24.13;51.01
50310;BME280;36207;51.850;21.698;2023-08-01T09:24:14;98706.41;;;24.08;51.12
50310;BME280;36207;51.850;21.698;2023-08-01T09:26:40;98703.48;;;24.04;51.26
50310;BME280;36207;51.850;21.698;2023-08-01T09:29:07;98699.83;;;23.97;51.16
50310;BME280;36207;51.850;21.698;2023-08-01T09:31:38;98702.91;;;23.90;51.19
50310;BME280;36207;51.850;21.698;2023-08-01T09:34:06;98701.17;;;23.83;51.14
50310;BME280;36207;51.850;21.698;2023-08-01T09:36:33;98703.27;;;23.78;51.20
50310;BME280;36207;51.850;21.698;2023-08-01T09:39:01;98702.38;;;23.73;51.29
50310;BME280;36207;51.850;21.698;2023-08-01T09:41:29;98703.39;;;23.70;51.41
50310;BME280;36207;51.850;21.698;2023-08-01T09:43:56;98702.08;;;23.67;51.50
50310;BME280;36207;51.850;21.698;2023-08-01T09:46:23;98701.22;;;23.65;51.70
50310;BME280;36207;51.850;21.698;2023-08-01T09:48:49;98697.73;;;23.62;51.54
50310;BME280;36207;51.850;21.698;2023-08-01T09:51:17;98692.63;;;23.61;51.87
50310;BME280;36207;51.850;21.698;2023-08-01T09:53:54;98691.17;;;23.63;51.94
50310;BME280;36207;51.850;21.698;2023-08-01T09:56:23;98690.23;;;23.64;52.08
50310;BME280;36207;51.850;21.698;2023-08-01T09:58:51;98689.29;;;23.64;51.97
50310;BME280;36207;51.850;21.698;2023-08-01T10:01:19;98692.48;;;23.66;52.27
50310;BME280;36207;51.850;21.698;2023-08-01T10:03:47;98696.44;;;23.67;52.11
50310;BME280;36207;51.850;21.698;2023-08-01T10:06:17;98691.40;;;23.70;52.45
50310;BME280;36207;51.850;21.698;2023-08-01T10:08:45;98688.36;;;23.73;52.80
50310;BME280;36207;51.850;21.698;2023-08-01T10:11:14;98689.14;;;23.76;52.67
50310;BME280;36207;51.850;21.698;2023-08-01T10:13:41;98690.55;;;23.77;52.74
50310;BME280;36207;51.850;21.698;2023-08-01T10:16:09;98683.37;;;23.78;52.81
50310;BME280;36207;51.850;21.698;2023-08-01T10:18:36;98683.63;;;23.80;53.04
50310;BME280;36207;51.850;21.698;2023-08-01T10:21:05;98683.36;;;23.82;53.00
50310;BME280;36207;51.850;21.698;2023-08-01T10:23:33;98689.44;;;23.88;53.27
50310;BME280;36207;51.850;21.698;2023-08-01T10:26:00;98681.73;;;23.92;53.02
50310;BME280;36207;51.850;21.698;2023-08-01T10:28:34;98678.72;;;23.93;53.35
50310;BME280;36207;51.850;21.698;2023-08-01T10:31:16;98679.27;;;23.95;53.31
50310;BME280;36207;51.850;21.698;2023-08-01T10:33:44;98673.54;;;23.95;53.44
50310;BME280;36207;51.850;21.698;2023-08-01T10:36:18;98669.52;;;23.97;53.86
50310;BME280;36207;51.850;21.698;2023-08-01T10:38:49;98667.56;;;24.00;53.71
50310;BME280;36207;51.850;21.698;2023-08-01T10:41:26;98667.41;;;24.02;53.62
50310;BME280;36207;51.850;21.698;2023-08-01T10:44:14;98663.16;;;24.06;53.84
50310;BME280;36207;51.850;21.698;2023-08-01T10:49:12;98670.49;;;24.04;53.39
50310;BME280;36207;51.850;21.698;2023-08-01T10:51:38;98671.59;;;23.98;52.49
50310;BME280;36207;51.850;21.698;2023-08-01T10:54:04;98669.52;;;23.92;52.66
50310;BME280;36207;51.850;21.698;2023-08-01T10:56:30;98666.79;;;23.85;52.30
50310;BME280;36207;51.850;21.698;2023-08-01T10:58:59;98666.63;;;23.76;52.57
50310;BME280;36207;51.850;21.698;2023-08-01T11:01:25;98664.46;;;23.67;52.79
50310;BME280;36207;51.850;21.698;2023-08-01T11:03:53;98669.17;;;23.61;52.75
50310;BME280;36207;51.850;21.698;2023-08-01T11:06:19;98673.40;;;23.54;52.79
50310;BME280;36207;51.850;21.698;2023-08-01T11:08:45;98676.44;;;23.44;53.22
50310;BME280;36207;51.850;21.698;2023-08-01T11:11:13;98676.48;;;23.34;53.61
50310;BME280;36207;51.850;21.698;2023-08-01T11:13:39;98680.89;;;23.20;53.80
50310;BME280;36207;51.850;21.698;2023-08-01T11:16:05;98674.27;;;23.06;54.54
50310;BME280;36207;51.850;21.698;2023-08-01T11:18:42;98670.83;;;22.94;54.59
50310;BME280;36207;51.850;21.698;2023-08-01T11:21:08;98666.40;;;22.86;54.89
50310;BME280;36207;51.850;21.698;2023-08-01T11:23:34;98671.77;;;22.81;54.95
50310;BME280;36207;51.850;21.698;2023-08-01T11:26:09;98670.46;;;22.75;55.29
50310;BME280;36207;51.850;21.698;2023-08-01T11:28:35;98669.70;;;22.67;55.39
50310;BME280;36207;51.850;21.698;2023-08-01T11:31:01;98670.50;;;22.64;55.62
50310;BME280;36207;51.850;21.698;2023-08-01T11:33:35;98672.33;;;22.61;56.16
50310;BME280;36207;51.850;21.698;2023-08-01T11:36:02;98673.02;;;22.54;56.14
50310;BME280;36207;51.850;21.698;2023-08-01T11:38:30;98672.61;;;22.47;56.65
50310;BME280;36207;51.850;21.698;2023-08-01T11:40:57;98669.28;;;22.39;57.20
50310;BME280;36207;51.850;21.698;2023-08-01T11:43:24;98668.31;;;22.32;57.36
50310;BME280;36207;51.850;21.698;2023-08-01T11:45:55;98669.00;;;22.25;57.47
50310;BME280;36207;51.850;21.698;2023-08-01T11:48:21;98676.27;;;22.18;57.85
50310;BME280;36207;51.850;21.698;2023-08-01T11:50:56;98674.83;;;22.10;58.07
50310;BME280;36207;51.850;21.698;2023-08-01T11:53:22;98675.09;;;22.04;58.33
50310;BME280;36207;51.850;21.698;2023-08-01T11:55:50;98675.33;;;21.97;58.38
50310;BME280;36207;51.850;21.698;2023-08-01T11:58:32;98670.13;;;21.91;58.81
50310;BME280;36207;51.850;21.698;2023-08-01T12:01:02;98665.61;;;21.84;59.33
50310;BME280;36207;51.850;21.698;2023-08-01T12:03:29;98666.14;;;21.80;59.48
50310;BME280;36207;51.850;21.698;2023-08-01T12:06:07;98665.08;;;21.77;59.63
50310;BME280;36207;51.850;21.698;2023-08-01T12:08:34;98664.46;;;21.73;60.28
50310;BME280;36207;51.850;21.698;2023-08-01T12:11:00;98664.83;;;21.69;60.73
50310;BME280;36207;51.850;21.698;2023-08-01T12:13:26;98664.83;;;21.63;60.51
50310;BME280;36207;51.850;21.698;2023-08-01T12:15:54;98668.84;;;21.55;61.27
50310;BME280;36207;51.850;21.698;2023-08-01T12:20:51;98662.84;;;21.45;62.42
50310;BME280;36207;51.850;21.698;2023-08-01T12:23:18;98663.16;;;21.39;62.14
50310;BME280;36207;51.850;21.698;2023-08-01T12:25:44;98658.87;;;21.34;63.36
50310;BME280;36207;51.850;21.698;2023-08-01T12:28:10;98658.00;;;21.33;62.22
50310;BME280;36207;51.850;21.698;2023-08-01T12:30:39;98655.94;;;21.34;62.76
50310;BME280;36207;51.850;21.698;2023-08-01T12:33:05;98649.36;;;21.35;63.18
50310;BME280;36207;51.850;21.698;2023-08-01T12:35:31;98651.49;;;21.37;62.78
50310;BME280;36207;51.850;21.698;2023-08-01T12:37:57;98641.89;;;21.43;62.74
50310;BME280;36207;51.850;21.698;2023-08-01T12:40:23;98636.30;;;21.50;64.16
50310;BME280;36207;51.850;21.698;2023-08-01T12:42:49;98631.95;;;21.57;64.21
50310;BME280;36207;51.850;21.698;2023-08-01T12:45:15;98627.39;;;21.63;64.75
50310;BME280;36207;51.850;21.698;2023-08-01T12:47:41;98623.70;;;21.69;64.61
50310;BME280;36207;51.850;21.698;2023-08-01T12:50:07;98621.54;;;21.73;65.20
50310;BME280;36207;51.850;21.698;2023-08-01T12:52:33;98618.27;;;21.80;64.71
50310;BME280;36207;51.850;21.698;2023-08-01T12:54:59;98618.55;;;21.95;64.73